sensor_id;sensor_type;location;lat;lon;timestamp;pressure;altitude;pressure_sealevel;temperature;humidity
31911;BME280;18457;52.432;16.914;2023-09-19T01:28:39;99649.00;;;21.18;100.00
31911;BME280;18457;52.432;16.914;2023-09-19T01:31:15;99645.58;;;21.08;100.00
31911;BME280;18457;52.432;16.914;2023-09-19T01:33:58;99648.77;;;21.05;100.00
31911;BME280;18457;52.432;16.914;2023-09-19T01:36:32;99644.75;;;20.95;100.00
31911;BME280;18457;52.432;16.914;2023-09-19T01:39:31;99646.58;;;20.98;100.00
31911;BME280;18457;52.432;16.914;2023-09-19T01:42:10;99643.02;;;21.06;100.00
31911;BME280;18457;52.432;16.914;2023-09-19T01:44:59;99638.66;;;21.00;100.00
31911;BME280;18457;52.432;16.914;2023-09-19T01:47:35;99635.44;;;21.06;100.00
31911;BME280;18457;52.432;16.914;2023-09-19T01:50:20;99636.69;;;21.09;100.00
31911;BME280;18457;52.432;16.914;2023-09-19T01:53:02;99635.81;;;21.13;100.00
31911;BME280;18457;52.432;16.914;2023-09-19T01:55:40;99633.55;;;21.16;100.00
31911;BME280;18457;52.432;16.914;2023-09-19T01:58:17;99634.98;;;21.21;100.00
31911;BME280;18457;52.432;16.914;2023-09-19T02:00:53;99634.57;;;21.19;100.00
31911;BME280;18457;52.432;16.914;2023-09-19T02:03:27;99629.14;;;21.21;100.00
31911;BME280;18457;52.432;16.914;2023-09-19T02:06:00;99637.69;;;21.24;100.00
31911;BME280;18457;52.432;16.914;2023-09-19T02:08:34;99632.81;;;21.02;100.00
31911;BME280;18457;52.432;16.914;2023-09-19T02:11:06;99628.22;;;21.07;100.00
31911;BME280;18457;52.432;16.914;2023-09-19T02:13:38;99631.22;;;21.11;100.00
31911;BME280;18457;52.432;16.914;2023-09-19T02:16:12;99624.23;;;21.11;100.00
31911;BME280;18457;52.432;16.914;2023-09-19T02:18:45;99627.45;;;21.12;100.00
31911;BME280;18457;52.432;16.914;2023-09-19T02:21:18;99621.48;;;21.15;100.00
31911;BME280;18457;52.432;16.914;2023-09-19T02:23:52;99624.83;;;21.19;100.00
31911;BME280;18457;52.432;16.914;2023-09-19T02:26:24;99625.86;;;21.18;100.00
31911;BME280;18457;52.432;16.914;2023-09-19T02:28:57;99630.77;;;21.10;100.00
31911;BME280;18457;52.432;16.914;2023-09-19T02:31:30;99636.80;;;20.98;100.00
31911;BME280;18457;52.432;16.914;2023-09-19T02:34:02;99635.65;;;20.89;100.00
31911;BME280;18457;52.432;16.914;2023-09-19T02:36:36;99629.77;;;20.87;100.00
31911;BME280;18457;52.432;16.914;2023-09-19T02:39:33;99633.58;;;20.87;100.00
31911;BME280;18457;52.432;16.914;2023-09-19T02:42:05;99637.35;;;20.86;100.00
31911;BME280;18457;52.432;16.914;2023-09-19T02:44:37;99641.38;;;20.86;100.00
31911;BME280;18457;52.432;16.914;2023-09-19T02:47:10;99637.73;;;20.88;100.00
31911;BME280;18457;52.432;16.914;2023-09-19T02:49:43;99640.39;;;20.95;100.00
31911;BME280;18457;52.432;16.914;2023-09-19T02:52:15;99637.33;;;20.91;100.00
31911;BME280;18457;52.432;16.914;2023-09-19T02:54:47;99640.85;;;20.86;100.00
31911;BME280;18457;52.432;16.914;2023-09-19T02:57:19;99644.02;;;20.83;100.00
31911;BME280;18457;52.432;16.914;2023-09-19T02:59:52;99646.83;;;20.90;100.00
31911;BME280;18457;52.432;16.914;2023-09-19T03:02:23;99650.92;;;20.80;100.00
31911;BME280;18457;52.432;16.914;2023-09-19T03:04:55;99645.37;;;20.80;100.00
31911;BME280;18457;52.432;16.914;2023-09-19T03:07:28;99642.68;;;20.79;100.00
31911;BME280;18457;52.432;16.914;2023-09-19T03:10:00;99641.27;;;20.76;100.00
31911;BME280;18457;52.432;16.914;2023-09-19T03:12:32;99637.27;;;20.66;100.00
31911;BME280;18457;52.432;16.914;2023-09-19T03:15:05;99631.77;;;20.57;100.00
31911;BME280;18457;52.432;16.914;2023-09-19T03:17:44;99634.71;;;20.48;100.00
31911;BME280;18457;52.432;16.914;2023-09-19T03:20:19;99641.67;;;20.33;100.00
31911;BME280;18457;52.432;16.914;2023-09-19T03:22:52;99642.04;;;20.34;100.00
31911;BME280;18457;52.432;16.914;2023-09-19T03:25:24;99635.25;;;20.38;100.00
31911;BME280;18457;52.432;16.914;2023-09-19T03:27:58;99632.13;;;20.34;100.00
31911;BME280;18457;52.432;16.914;2023-09-19T03:30:30;99627.09;;;20.35;100.00
31911;BME280;18457;52.432;16.914;2023-09-19T03:33:04;99625.48;;;20.42;100.00
31911;BME280;18457;52.432;16.914;2023-09-19T03:35:35;99620.15;;;20.27;100.00
31911;BME280;18457;52.432;16.914;2023-09-19T03:38:08;99616.27;;;20.18;100.00
31911;BME280;18457;52.432;16.914;2023-09-19T03:40:40;99621.30;;;20.10;100.00
31911;BME280;18457;52.432;16.914;2023-09-19T03:43:12;99616.80;;;20.01;100.00
31911;BME280;18457;52.432;16.914;2023-09-19T03:45:43;99612.04;;;19.94;100.00
31911;BME280;18457;52.432;16.914;2023-09-19T03:48:16;99600.37;;;19.85;100.00
31911;BME280;18457;52.432;16.914;2023-09-19T03:50:48;99601.05;;;19.93;100.00
31911;BME280;18457;52.432;16.914;2023-09-19T03:53:21;99602.44;;;20.02;100.00
31911;BME280;18457;52.432;16.914;2023-09-19T03:55:54;99606.45;;;19.87;100.00
31911;BME280;18457;52.432;16.914;2023-09-19T03:58:26;99601.58;;;19.99;100.00
31911;BME280;18457;52.432;16.914;2023-09-19T04:00:58;99607.55;;;19.99;100.00
31911;BME280;18457;52.432;16.914;2023-09-19T04:03:31;99610.55;;;20.06;100.00
31911;BME280;18457;52.432;16.914;2023-09-19T04:06:17;99618.61;;;20.04;100.00
31911;BME280;18457;52.432;16.914;2023-09-19T04:08:49;99621.82;;;20.00;100.00
31911;BME280;18457;52.432;16.914;2023-09-19T04:11:21;99623.23;;;19.98;100.00
31911;BME280;18457;52.432;16.914;2023-09-19T04:13:53;99618.55;;;20.02;100.00
31911;BME280;18457;52.432;16.914;2023-09-19T04:16:25;99620.95;;;19.89;100.00
31911;BME280;18457;52.432;16.914;2023-09-19T04:18:59;99621.79;;;19.76;100.00
31911;BME280;18457;52.432;16.914;2023-09-19T04:21:31;99622.93;;;19.76;100.00
31911;BME280;18457;52.432;16.914;2023-09-19T04:24:31;99617.08;;;19.80;100.00
31911;BME280;18457;52.432;16.914;2023-09-19T04:27:05;99614.55;;;19.78;100.00
31911;BME280;18457;52.432;16.914;2023-09-19T04:29:40;99614.84;;;19.76;100.00
31911;BME280;18457;52.432;16.914;2023-09-19T04:32:12;99619.01;;;19.79;100.00
31911;BME280;18457;52.432;16.914;2023-09-19T04:34:44;99624.88;;;19.76;100.00
31911;BME280;18457;52.432;16.914;2023-09-19T04:37:17;99631.09;;;19.84;100.00
31911;BME280;18457;52.432;16.914;2023-09-19T04:39:49;99626.20;;;19.90;100.00
31911;BME280;18457;52.432;16.914;2023-09-19T04:42:21;99627.59;;;19.79;100.00
31911;BME280;18457;52.432;16.914;2023-09-19T04:44:56;99627.83;;;19.76;100.00
31911;BME280;18457;52.432;16.914;2023-09-19T04:47:30;99629.28;;;19.76;100.00
31911;BME280;18457;52.432;16.914;2023-09-19T04:50:02;99628.36;;;19.84;100.00
31911;BME280;18457;52.432;16.914;2023-09-19T04:52:35;99628.41;;;19.85;100.00
31911;BME280;18457;52.432;16.914;2023-09-19T04:55:12;99629.58;;;19.87;100.00
31911;BME280;18457;52.432;16.914;2023-09-19T04:57:48;99629.92;;;19.83;100.00
31911;BME280;18457;52.432;16.914;2023-09-19T05:00:21;99633.05;;;19.85;100.00
31911;BME280;18457;52.432;16.914;2023-09-19T05:02:56;99630.58;;;19.88;100.00
31911;BME280;18457;52.432;16.914;2023-09-19T05:05:29;99631.04;;;19.92;100.00
31911;BME280;18457;52.432;16.914;2023-09-19T05:08:01;99635.63;;;19.92;100.00
31911;BME280;18457;52.432;16.914;2023-09-19T05:10:36;99620.98;;;19.70;100.00
31911;BME280;18457;52.432;16.914;2023-09-19T05:13:09;99643.45;;;19.66;100.00
31911;BME280;18457;52.432;16.914;2023-09-19T05:15:41;99641.73;;;19.74;100.00
31911;BME280;18457;52.432;16.914;2023-09-19T05:18:13;99646.13;;;19.79;100.00
31911;BME280;18457;52.432;16.914;2023-09-19T05:20:45;99648.14;;;19.77;100.00
31911;BME280;18457;52.432;16.914;2023-09-19T05:23:17;99640.92;;;19.70;100.00
31911;BME280;18457;52.432;16.914;2023-09-19T05:25:52;99645.92;;;19.75;100.00
31911;BME280;18457;52.432;16.914;2023-09-19T05:28:25;99655.53;;;19.79;100.00
31911;BME280;18457;52.432;16.914;2023-09-19T05:30:57;99654.23;;;19.81;100.00
31911;BME280;18457;52.432;16.914;2023-09-19T05:33:32;99655.75;;;19.75;100.00
31911;BME280;18457;52.432;16.914;2023-09-19T05:36:04;99655.27;;;19.84;100.00
31911;BME280;18457;52.432;16.914;2023-09-19T05:38:37;99657.36;;;19.86;100.00
31911;BME280;18457;52.432;16.914;2023-09-19T05:41:12;99657.53;;;19.76;100.00
31911;BME280;18457;52.432;16.914;2023-09-19T05:43:45;99656.70;;;19.75;100.00
31911;BME280;18457;52.432;16.914;2023-09-19T05:46:17;99659.05;;;19.85;100.00
31911;BME280;18457;52.432;16.914;2023-09-19T05:48:50;99656.45;;;19.86;100.00
31911;BME280;18457;52.432;16.914;2023-09-19T05:51:22;99664.17;;;19.90;100.00
31911;BME280;18457;52.432;16.914;2023-09-19T05:53:54;99659.11;;;19.92;100.00
31911;BME280;18457;52.432;16.914;2023-09-19T05:56:26;99659.61;;;19.83;100.00
31911;BME280;18457;52.432;16.914;2023-09-19T05:58:59;99659.69;;;19.89;100.00
31911;BME280;18457;52.432;16.914;2023-09-19T06:01:31;99656.85;;;19.75;100.00
31911;BME280;18457;52.432;16.914;2023-09-19T06:04:33;99658.34;;;19.72;100.00
31911;BME280;18457;52.432;16.914;2023-09-19T06:07:06;99664.51;;;19.69;100.00
31911;BME280;18457;52.432;16.914;2023-09-19T06:09:38;99659.97;;;19.78;100.00
31911;BME280;18457;52.432;16.914;2023-09-19T06:12:10;99668.45;;;19.90;100.00
31911;BME280;18457;52.432;16.914;2023-09-19T06:14:43;99669.20;;;19.87;100.00
31911;BME280;18457;52.432;16.914;2023-09-19T06:17:15;99675.61;;;19.57;100.00
31911;BME280;18457;52.432;16.914;2023-09-19T06:19:47;99674.58;;;19.74;100.00
31911;BME280;18457;52.432;16.914;2023-09-19T06:22:21;99679.09;;;19.85;100.00
31911;BME280;18457;52.432;16.914;2023-09-19T06:24:55;99678.48;;;19.85;100.00
31911;BME280;18457;52.432;16.914;2023-09-19T06:27:27;99684.23;;;19.99;100.00
31911;BME280;18457;52.432;16.914;2023-09-19T06:29:59;99688.77;;;19.88;100.00
31911;BME280;18457;52.432;16.914;2023-09-19T06:32:32;99695.83;;;19.91;100.00
31911;BME280;18457;52.432;16.914;2023-09-19T06:35:05;99702.50;;;19.95;100.00
31911;BME280;18457;52.432;16.914;2023-09-19T06:37:40;99702.73;;;20.05;100.00
31911;BME280;18457;52.432;16.914;2023-09-19T06:40:13;99701.85;;;20.07;100.00
31911;BME280;18457;52.432;16.914;2023-09-19T06:42:46;99703.89;;;19.81;100.00
31911;BME280;18457;52.432;16.914;2023-09-19T06:45:18;99710.52;;;19.83;100.00
31911;BME280;18457;52.432;16.914;2023-09-19T06:47:52;99710.38;;;20.00;100.00
31911;BME280;18457;52.432;16.914;2023-09-19T06:50:29;99716.22;;;20.08;100.00
31911;BME280;18457;52.432;16.914;2023-09-19T06:53:01;99723.52;;;20.11;100.00
31911;BME280;18457;52.432;16.914;2023-09-19T06:55:32;99726.08;;;20.14;100.00
31911;BME280;18457;52.432;16.914;2023-09-19T06:58:05;99732.98;;;19.97;100.00
31911;BME280;18457;52.432;16.914;2023-09-19T07:00:38;99731.72;;;19.82;100.00
31911;BME280;18457;52.432;16.914;2023-09-19T07:03:10;99734.39;;;19.83;100.00
31911;BME280;18457;52.432;16.914;2023-09-19T07:05:48;99742.98;;;19.93;100.00
31911;BME280;18457;52.432;16.914;2023-09-19T07:08:20;99741.58;;;19.82;100.00
31911;BME280;18457;52.432;16.914;2023-09-19T07:10:52;99745.75;;;19.88;100.00
31911;BME280;18457;52.432;16.914;2023-09-19T07:13:23;99743.46;;;19.87;100.00
31911;BME280;18457;52.432;16.914;2023-09-19T07:15:57;99744.45;;;19.93;100.00
31911;BME280;18457;52.432;16.914;2023-09-19T07:18:30;99748.26;;;19.84;100.00
31911;BME280;18457;52.432;16.914;2023-09-19T07:21:02;99752.76;;;19.82;100.00
31911;BME280;18457;52.432;16.914;2023-09-19T07:23:36;99761.84;;;19.84;100.00
31911;BME280;18457;52.432;16.914;2023-09-19T07:26:09;99759.52;;;19.85;100.00
31911;BME280;18457;52.432;16.914;2023-09-19T07:28:41;99760.95;;;19.93;100.00
31911;BME280;18457;52.432;16.914;2023-09-19T07:31:13;99766.67;;;20.05;100.00
31911;BME280;18457;52.432;16.914;2023-09-19T07:33:44;99772.36;;;20.25;100.00
31911;BME280;18457;52.432;16.914;2023-09-19T07:36:16;99774.73;;;20.33;100.00
31911;BME280;18457;52.432;16.914;2023-09-19T07:38:48;99777.52;;;20.33;100.00
31911;BME280;18457;52.432;16.914;2023-09-19T07:41:20;99785.66;;;20.44;100.00
31911;BME280;18457;52.432;16.914;2023-09-19T07:43:53;99786.65;;;20.53;99.96
31911;BME280;18457;52.432;16.914;2023-09-19T07:46:25;99791.20;;;20.48;99.49
31911;BME280;18457;52.432;16.914;2023-09-19T07:48:56;99792.46;;;20.56;99.17
31911;BME280;18457;52.432;16.914;2023-09-19T07:51:28;99791.41;;;20.62;99.69
31911;BME280;18457;52.432;16.914;2023-09-19T07:54:00;99788.61;;;20.63;98.91
31911;BME280;18457;52.432;16.914;2023-09-19T07:56:32;99793.30;;;20.59;97.67
31911;BME280;18457;52.432;16.914;2023-09-19T07:59:33;99796.48;;;20.66;96.74
31911;BME280;18457;52.432;16.914;2023-09-19T08:02:05;99794.27;;;20.54;96.05
31911;BME280;18457;52.432;16.914;2023-09-19T08:04:40;99800.64;;;20.52;95.55
31911;BME280;18457;52.432;16.914;2023-09-19T08:07:12;99801.25;;;20.61;95.18
31911;BME280;18457;52.432;16.914;2023-09-19T08:09:45;99803.62;;;20.71;94.59
31911;BME280;18457;52.432;16.914;2023-09-19T08:12:19;99807.73;;;20.67;94.58
31911;BME280;18457;52.432;16.914;2023-09-19T08:14:54;99806.35;;;20.74;94.56
31911;BME280;18457;52.432;16.914;2023-09-19T08:17:26;99818.80;;;20.69;94.97
31911;BME280;18457;52.432;16.914;2023-09-19T08:19:59;99822.02;;;20.78;92.50
31911;BME280;18457;52.432;16.914;2023-09-19T08:22:32;99829.17;;;20.68;91.09
31911;BME280;18457;52.432;16.914;2023-09-19T08:25:04;99830.47;;;20.82;91.39
31911;BME280;18457;52.432;16.914;2023-09-19T08:27:38;99836.64;;;20.98;91.57
31911;BME280;18457;52.432;16.914;2023-09-19T08:30:11;99839.98;;;20.98;89.98
31911;BME280;18457;52.432;16.914;2023-09-19T08:32:43;99840.17;;;20.83;89.32
31911;BME280;18457;52.432;16.914;2023-09-19T08:35:17;99841.28;;;20.90;90.09
31911;BME280;18457;52.432;16.914;2023-09-19T08:37:50;99845.71;;;20.97;90.21
31911;BME280;18457;52.432;16.914;2023-09-19T08:40:23;99842.77;;;20.97;89.38
31911;BME280;18457;52.432;16.914;2023-09-19T08:43:02;99853.32;;;21.11;87.73
31911;BME280;18457;52.432;16.914;2023-09-19T08:45:35;99852.75;;;20.96;86.47
31911;BME280;18457;52.432;16.914;2023-09-19T08:48:20;99861.70;;;20.97;85.71
31911;BME280;18457;52.432;16.914;2023-09-19T08:50:58;99856.35;;;21.00;85.96
31911;BME280;18457;52.432;16.914;2023-09-19T08:53:42;99854.42;;;20.96;84.93
31911;BME280;18457;52.432;16.914;2023-09-19T08:56:20;99855.25;;;20.92;83.82
31911;BME280;18457;52.432;16.914;2023-09-19T08:58:57;99860.86;;;20.98;83.44
31911;BME280;18457;52.432;16.914;2023-09-19T09:01:31;99863.00;;;20.97;82.25
31911;BME280;18457;52.432;16.914;2023-09-19T09:04:31;99863.23;;;20.91;80.78
31911;BME280;18457;52.432;16.914;2023-09-19T09:07:05;99856.67;;;20.83;79.48
31911;BME280;18457;52.432;16.914;2023-09-19T09:09:36;99855.31;;;20.87;80.07
31911;BME280;18457;52.432;16.914;2023-09-19T09:12:15;99855.89;;;20.93;80.20
31911;BME280;18457;52.432;16.914;2023-09-19T09:14:47;99853.97;;;20.92;79.31
31911;BME280;18457;52.432;16.914;2023-09-19T09:17:20;99855.01;;;20.98;78.53
31911;BME280;18457;52.432;16.914;2023-09-19T09:19:54;99862.95;;;21.00;78.42
31911;BME280;18457;52.432;16.914;2023-09-19T09:22:27;99861.23;;;21.06;77.77
31911;BME280;18457;52.432;16.914;2023-09-19T09:24:59;99863.48;;;21.08;77.34
31911;BME280;18457;52.432;16.914;2023-09-19T09:27:34;99877.08;;;21.10;77.35
31911;BME280;18457;52.432;16.914;2023-09-19T09:30:08;99882.17;;;21.01;75.94
31911;BME280;18457;52.432;16.914;2023-09-19T09:32:43;99885.09;;;21.06;75.56
31911;BME280;18457;52.432;16.914;2023-09-19T09:35:48;99884.85;;;21.02;75.57
31911;BME280;18457;52.432;16.914;2023-09-19T09:38:24;99886.83;;;21.15;75.19
31911;BME280;18457;52.432;16.914;2023-09-19T09:41:02;99902.56;;;21.15;74.17
31911;BME280;18457;52.432;16.914;2023-09-19T09:43:39;99898.21;;;21.10;74.06
31911;BME280;18457;52.432;16.914;2023-09-19T09:46:14;99900.05;;;21.22;74.27
31911;BME280;18457;52.432;16.914;2023-09-19T09:49:23;99908.16;;;21.33;73.92
31911;BME280;18457;52.432;16.914;2023-09-19T09:52:05;99918.73;;;21.23;72.66
31911;BME280;18457;52.432;16.914;2023-09-19T09:54:59;99926.40;;;21.21;71.87
31911;BME280;18457;52.432;16.914;2023-09-19T09:57:36;99928.89;;;21.27;71.61
31911;BME280;18457;52.432;16.914;2023-09-19T10:00:13;99930.27;;;21.54;72.02
31911;BME280;18457;52.432;16.914;2023-09-19T10:03:20;99934.67;;;21.81;71.14
31911;BME280;18457;52.432;16.914;2023-09-19T10:05:56;99939.16;;;21.89;70.59
31911;BME280;18457;52.432;16.914;2023-09-19T10:08:28;99940.98;;;21.60;69.58
31911;BME280;18457;52.432;16.914;2023-09-19T10:11:02;99940.41;;;21.30;68.89
31911;BME280;18457;52.432;16.914;2023-09-19T10:13:47;99942.86;;;21.15;68.57
31911;BME280;18457;52.432;16.914;2023-09-19T10:16:19;99942.45;;;21.27;68.16
31911;BME280;18457;52.432;16.914;2023-09-19T10:18:55;99942.15;;;21.60;67.78
31911;BME280;18457;52.432;16.914;2023-09-19T10:21:31;99943.17;;;21.94;66.36
31911;BME280;18457;52.432;16.914;2023-09-19T10:24:05;99938.75;;;22.22;65.30
31911;BME280;18457;52.432;16.914;2023-09-19T10:26:40;99930.57;;;22.48;64.36
31911;BME280;18457;52.432;16.914;2023-09-19T10:29:15;99931.71;;;22.52;63.63
31911;BME280;18457;52.432;16.914;2023-09-19T10:31:53;99928.77;;;22.54;63.56
31911;BME280;18457;52.432;16.914;2023-09-19T10:34:30;99917.95;;;22.83;62.89
31911;BME280;18457;52.432;16.914;2023-09-19T10:37:07;99922.02;;;22.98;61.95
31911;BME280;18457;52.432;16.914;2023-09-19T10:39:41;99928.49;;;23.02;61.38
31911;BME280;18457;52.432;16.914;2023-09-19T10:42:20;99926.17;;;23.14;60.25
31911;BME280;18457;52.432;16.914;2023-09-19T10:44:53;99923.04;;;23.23;60.22
31911;BME280;18457;52.432;16.914;2023-09-19T10:47:25;99924.25;;;23.61;59.90
31911;BME280;18457;52.432;16.914;2023-09-19T10:49:58;99916.10;;;23.74;59.28
31911;BME280;18457;52.432;16.914;2023-09-19T10:52:30;99927.09;;;23.84;58.09
31911;BME280;18457;52.432;16.914;2023-09-19T10:55:07;99943.59;;;23.53;54.81
31911;BME280;18457;52.432;16.914;2023-09-19T10:57:45;99952.64;;;23.31;53.74
31911;BME280;18457;52.432;16.914;2023-09-19T11:00:19;99955.84;;;23.10;52.06
31911;BME280;18457;52.432;16.914;2023-09-19T11:03:20;99959.70;;;22.86;51.25
31911;BME280;18457;52.432;16.914;2023-09-19T11:06:07;99959.83;;;22.53;52.54
31911;BME280;18457;52.432;16.914;2023-09-19T11:09:01;99963.30;;;22.71;53.03
31911;BME280;18457;52.432;16.914;2023-09-19T11:11:52;99967.02;;;22.91;50.89
31911;BME280;18457;52.432;16.914;2023-09-19T11:14:41;99960.80;;;22.93;51.76
31911;BME280;18457;52.432;16.914;2023-09-19T11:17:42;99962.75;;;23.00;52.68
31911;BME280;18457;52.432;16.914;2023-09-19T11:20:24;99971.89;;;23.28;53.36
31911;BME280;18457;52.432;16.914;2023-09-19T11:23:24;99974.96;;;23.61;53.09
31911;BME280;18457;52.432;16.914;2023-09-19T11:25:57;99973.45;;;23.42;53.17
31911;BME280;18457;52.432;16.914;2023-09-19T11:28:36;99972.85;;;23.41;53.15
31911;BME280;18457;52.432;16.914;2023-09-19T11:34:43;99984.48;;;22.69;54.17
31911;BME280;18457;52.432;16.914;2023-09-19T11:43:44;99983.31;;;22.77;55.12
31911;BME280;18457;52.432;16.914;2023-09-19T11:46:17;99983.05;;;22.52;55.01
31911;BME280;18457;52.432;16.914;2023-09-19T11:48:52;99979.09;;;22.56;54.82
31911;BME280;18457;52.432;16.914;2023-09-19T11:51:25;99970.48;;;22.80;55.33
31911;BME280;18457;52.432;16.914;2023-09-19T11:54:00;99976.19;;;23.16;54.33
31911;BME280;18457;52.432;16.914;2023-09-19T11:56:31;99984.94;;;23.06;51.51
31911;BME280;18457;52.432;16.914;2023-09-19T11:59:12;99974.11;;;22.99;50.94
31911;BME280;18457;52.432;16.914;2023-09-19T12:01:54;99979.20;;;23.24;51.25
31911;BME280;18457;52.432;16.914;2023-09-19T12:04:39;99975.44;;;23.07;50.95
31911;BME280;18457;52.432;16.914;2023-09-19T12:07:14;99978.25;;;23.11;51.21
31911;BME280;18457;52.432;16.914;2023-09-19T12:09:50;99976.90;;;22.94;50.80
31911;BME280;18457;52.432;16.914;2023-09-19T12:12:23;99973.58;;;23.03;50.87
31911;BME280;18457;52.432;16.914;2023-09-19T12:14:58;99970.95;;;22.95;50.96
31911;BME280;18457;52.432;16.914;2023-09-19T12:17:38;99972.72;;;23.00;50.95
31911;BME280;18457;52.432;16.914;2023-09-19T12:20:12;99969.80;;;22.97;51.19
31911;BME280;18457;52.432;16.914;2023-09-19T12:22:46;99964.84;;;23.11;51.34
31911;BME280;18457;52.432;16.914;2023-09-19T12:25:20;99964.58;;;23.18;51.78
31911;BME280;18457;52.432;16.914;2023-09-19T12:27:52;99959.31;;;23.13;51.31
31911;BME280;18457;52.432;16.914;2023-09-19T12:30:29;99963.65;;;23.23;50.77
31911;BME280;18457;52.432;16.914;2023-09-19T12:33:05;99963.18;;;23.19;50.78
31911;BME280;18457;52.432;16.914;2023-09-19T12:35:38;99962.60;;;23.40;49.81
31911;BME280;18457;52.432;16.914;2023-09-19T12:38:10;99965.27;;;23.41;48.23
31911;BME280;18457;52.432;16.914;2023-09-19T12:40:43;99963.99;;;23.45;48.04
31911;BME280;18457;52.432;16.914;2023-09-19T12:43:16;99962.66;;;23.48;47.55
31911;BME280;18457;52.432;16.914;2023-09-19T12:45:49;99964.50;;;23.61;47.48
31911;BME280;18457;52.432;16.914;2023-09-19T12:48:25;99970.58;;;23.52;47.03
31911;BME280;18457;52.432;16.914;2023-09-19T12:51:04;99963.05;;;23.71;47.44
31911;BME280;18457;52.432;16.914;2023-09-19T12:53:43;99962.20;;;23.79;46.52
31911;BME280;18457;52.432;16.914;2023-09-19T12:56:18;99968.73;;;23.78;45.89
31911;BME280;18457;52.432;16.914;2023-09-19T12:58:52;99969.83;;;23.87;46.90
31911;BME280;18457;52.432;16.914;2023-09-19T13:01:27;99960.55;;;24.06;46.72
31911;BME280;18457;52.432;16.914;2023-09-19T13:04:16;99955.98;;;24.27;46.29
31911;BME280;18457;52.432;16.914;2023-09-19T13:06:52;99953.58;;;24.38;45.31
31911;BME280;18457;52.432;16.914;2023-09-19T13:09:25;99958.20;;;24.46;45.21
31911;BME280;18457;52.432;16.914;2023-09-19T13:12:05;99962.08;;;24.42;44.64
31911;BME280;18457;52.432;16.914;2023-09-19T13:15:09;99971.91;;;24.24;44.77
31911;BME280;18457;52.432;16.914;2023-09-19T13:17:46;99967.92;;;23.94;45.00
31911;BME280;18457;52.432;16.914;2023-09-19T13:20:26;99964.61;;;24.07;45.57
31911;BME280;18457;52.432;16.914;2023-09-19T13:23:02;99961.48;;;24.08;45.27
31911;BME280;18457;52.432;16.914;2023-09-19T13:25:41;99966.48;;;24.02;46.20
31911;BME280;18457;52.432;16.914;2023-09-19T13:28:13;99961.60;;;24.11;46.31
31911;BME280;18457;52.432;16.914;2023-09-19T13:30:45;99965.35;;;24.13;45.98
31911;BME280;18457;52.432;16.914;2023-09-19T13:33:19;99966.13;;;23.87;46.49
31911;BME280;18457;52.432;16.914;2023-09-19T13:35:51;99968.16;;;23.53;47.06
31911;BME280;18457;52.432;16.914;2023-09-19T13:38:24;99969.96;;;23.47;47.76
31911;BME280;18457;52.432;16.914;2023-09-19T13:40:56;99973.64;;;23.49;48.07
31911;BME280;18457;52.432;16.914;2023-09-19T13:43:29;99981.21;;;23.53;47.93
31911;BME280;18457;52.432;16.914;2023-09-19T13:46:02;99976.29;;;23.46;48.67
31911;BME280;18457;52.432;16.914;2023-09-19T13:48:33;99976.27;;;23.35;49.16
31911;BME280;18457;52.432;16.914;2023-09-19T13:51:04;99980.36;;;23.48;49.86
31911;BME280;18457;52.432;16.914;2023-09-19T13:53:36;99978.60;;;23.54;49.83
31911;BME280;18457;52.432;16.914;2023-09-19T13:56:07;99974.64;;;23.46;50.32
31911;BME280;18457;52.432;16.914;2023-09-19T13:58:40;99978.75;;;23.32;50.46
31911;BME280;18457;52.432;16.914;2023-09-19T14:01:13;99971.42;;;23.33;50.58
31911;BME280;18457;52.432;16.914;2023-09-19T14:03:45;99970.77;;;23.44;50.77
31911;BME280;18457;52.432;16.914;2023-09-19T14:06:20;99971.42;;;23.40;50.64
31911;BME280;18457;52.432;16.914;2023-09-19T14:08:52;99970.41;;;23.57;50.45
31911;BME280;18457;52.432;16.914;2023-09-19T14:11:24;99963.69;;;23.53;50.72
31911;BME280;18457;52.432;16.914;2023-09-19T14:13:57;99965.02;;;23.59;50.67
31911;BME280;18457;52.432;16.914;2023-09-19T14:16:29;99967.24;;;23.68;50.87
31911;BME280;18457;52.432;16.914;2023-09-19T14:19:02;99970.80;;;23.71;50.44
31911;BME280;18457;52.432;16.914;2023-09-19T14:21:33;99966.29;;;23.53;49.25
31911;BME280;18457;52.432;16.914;2023-09-19T14:24:07;99969.48;;;23.41;47.25
31911;BME280;18457;52.432;16.914;2023-09-19T14:26:40;99970.61;;;23.43;46.57
31911;BME280;18457;52.432;16.914;2023-09-19T14:29:12;99972.75;;;23.37;46.17
31911;BME280;18457;52.432;16.914;2023-09-19T14:31:45;99975.45;;;23.40;46.39
31911;BME280;18457;52.432;16.914;2023-09-19T14:34:17;99979.48;;;23.60;46.42
31911;BME280;18457;52.432;16.914;2023-09-19T14:36:50;99980.80;;;23.56;46.50
31911;BME280;18457;52.432;16.914;2023-09-19T14:39:22;99982.11;;;23.42;46.34
31911;BME280;18457;52.432;16.914;2023-09-19T14:41:55;99984.19;;;23.46;46.34
31911;BME280;18457;52.432;16.914;2023-09-19T14:44:27;99990.33;;;23.48;45.95
31911;BME280;18457;52.432;16.914;2023-09-19T14:46:59;99988.79;;;23.49;46.01
31911;BME280;18457;52.432;16.914;2023-09-19T14:49:34;99989.52;;;23.47;45.48
31911;BME280;18457;52.432;16.914;2023-09-19T14:52:11;99990.88;;;23.46;45.62
31911;BME280;18457;52.432;16.914;2023-09-19T14:54:46;99991.94;;;23.33;45.18
31911;BME280;18457;52.432;16.914;2023-09-19T14:57:18;99993.55;;;23.31;45.19
31911;BME280;18457;52.432;16.914;2023-09-19T14:59:51;99994.48;;;23.11;44.41
31911;BME280;18457;52.432;16.914;2023-09-19T15:02:22;99994.17;;;22.84;44.55
31911;BME280;18457;52.432;16.914;2023-09-19T15:04:54;99992.97;;;22.69;44.91